Гостищево

Карта отелей и гостиниц, располагающихся рядом с аэропортом Гостищево :



Гостищево Белгородская область 50° 47' 45.3588" N, 36° 40' 39.0612" E

Гостищево Белгородская область 50° 47' 45.3588" N, 36° 40' 39.0612" E
Код аэродрома ИКАО: 
ZC94
Код аэродрома RU: 
ЗЦ94
Координаты: 
N50.79593° E036.67752°
Превышение над уровнем моря : 
217
Основная полоса: 
13/31
Курс магнитный: 
126/306
Длина основной ВПП: 
420
Ширина основной ВПП: 
18
Покрытие основной ВПП: 
Твёрдое (асфальт)
Тип: 
Аэродром
Освещение ВПП: 
Нет
Класс аэродрома: 
Статус: 
Недействующий
Принадлежность: 
ГА
Сайт: 
E-mail аэродрома: 
Страна: 
Россия
Регион: 
Белгородская область
Город: 
Дополнительная информация: 
Белгородская область. Россия. Площадка АХР. Магнитное склонение: +8.2°

Найти трансфер

С помощью этой формы Вы можете найти трансфер из аэропорта Гостищево в город, аэропорт или вокзал:

Карта места

Javascript is required to view this map.

Погода в аэропортах:

Авиационная погода в Лаппеэнранта

Регион: 
Погода METAR: 
EFLP 042250Z AUTO 08007KT 9000 -RA OVC004 12/11 Q0997
Время наблюдения: 
2020-06-04T22:50:00Z
Температура C: 
12.0
Точка росы: 
11.0
Направление ветра: 
80
Скорость ветра: 
7
Метеорологическая видимость: 
5.59
Явления погоды: 
-RA
Условия полета: 
LIFR

Авиационная погода в Закаталы

Регион: 
Погода METAR: 
UBBY 042300Z 36002KT 9999 VCTS SCT045CB BKN080 20/15 Q1017 R33/////// NOSIG RMK MT OP
Время наблюдения: 
2020-06-04T23:00:00Z
Температура C: 
20.0
Точка росы: 
15.0
Направление ветра: 
360
Скорость ветра: 
2
Метеорологическая видимость: 
6.21
Явления погоды: 
VCTS
Условия полета: 
VFR

Авиационная погода в Грозном

Регион: 
Погода METAR: 
URMG 042300Z 31004MPS 9999 -SHRA SCT///CB BKN/// 17/14 Q1014 R08/090070 NOSIG RMK QFE746/0995
Время наблюдения: 
2020-06-04T23:00:00Z
Температура C: 
17.0
Точка росы: 
14.0
Направление ветра: 
310
Скорость ветра: 
8
Метеорологическая видимость: 
6.21
Явления погоды: 
-SHRA
Аэропорт подробнее: 

Авиационная погода в Чебоксарах

Регион: 
Погода METAR: 
UWKS 042300Z 21003MPS 4000 BR OVC007 15/14 Q1012 R06/010060 TEMPO 1000 BR OVC005 RMK QFE744
Время наблюдения: 
2020-06-04T23:00:00Z
Температура C: 
15.0
Точка росы: 
14.0
Направление ветра: 
210
Скорость ветра: 
6
Метеорологическая видимость: 
2.49
Явления погоды: 
BR
Условия полета: 
IFR
Аэропорт подробнее: